Terminal Aerodrome Forecast
Issued by NWS

Home | Current Version | Previous Version | Text Only | Print | Product List | Glossary On
Versions: 1 2 3 4 5 6 7 8 9 10 11 12 13 14
000
FTUS43 KIND 201100
TAFBMG
TAF
KBMG 201120Z 2012/2112 VRB04KT P6SM BKN250
     FM201700 18007KT P6SM BKN250
     FM210000 VRB02KT P6SM SCT100 BKN250=

USA.gov is the U.S. government's official web portal to all federal, state and local government web resources and services.